Time;durP1;ratioP1;P1;durP2;ratioP2;P2;SDS_P1;SDS_P2;PMS_P1;PMS_P2;Temp;Humidity;BMP_temperature;BMP_pressure;BME280_temperature;BME280_humidity;BME280_pressure;Samples;Min_cycle;Max_cycle;Signal;HPM_P1;HPM_P2
2022/12/10 00:01:30;;;;;;;;;;;;;;;18.67;41.06;100392.88;5131132;27;19942;-43
2022/12/10 00:03:55;;;;;;;;;;;;;;;18.66;40.86;100397.59;5138235;27;20680;-44
2022/12/10 00:06:22;;;;;;;;;;;;;;;18.65;40.86;100398.72;5154673;27;19996;-43
2022/12/10 00:08:48;;;;;;;;;;;;;;;18.66;41.00;100399.53;5173859;27;20375;-44
2022/12/10 00:11:14;;;;;;;;;;;;;;;18.65;40.91;100395.09;5165419;27;19933;-44
2022/12/10 00:13:39;;;;;;;;;;;;;;;18.65;41.01;100393.19;5136930;27;20004;-45
2022/12/10 00:16:06;;;;;;;;;;;;;;;18.65;40.89;100398.72;5138366;27;19935;-45
2022/12/10 00:18:31;;;;;;;;;;;;;;;18.66;41.14;100399.53;5144004;27;19922;-43
2022/12/10 00:20:57;;;;;;;;;;;;;;;18.64;40.77;100397.03;5154411;27;20377;-44
2022/12/10 00:23:23;;;;;;;;;;;;;;;18.65;40.90;100393.19;5146281;27;19927;-44
2022/12/10 00:25:49;;;;;;;;;;;;;;;18.64;41.00;100391.53;5167011;27;20141;-45
2022/12/10 00:28:14;;;;;;;;;;;;;;;18.65;40.93;100395.09;5149183;27;19927;-43
2022/12/10 00:30:40;;;;;;;;;;;;;;;18.64;41.08;100397.03;5163896;27;19944;-45
2022/12/10 00:33:05;;;;;;;;;;;;;;;18.64;40.74;100391.53;5152101;27;20154;-43
2022/12/10 00:35:31;;;;;;;;;;;;;;;18.66;41.10;100399.53;5152592;27;19930;-44
2022/12/10 00:37:56;;;;;;;;;;;;;;;18.64;40.95;100401.72;5171907;27;19986;-44
2022/12/10 00:40:22;;;;;;;;;;;;;;;18.63;40.78;100389.88;5158217;27;19924;-45
2022/12/10 00:42:47;;;;;;;;;;;;;;;18.64;41.08;100393.47;5133079;27;19927;-44
2022/12/10 00:45:13;;;;;;;;;;;;;;;18.64;41.12;100396.22;5144406;27;20275;-43
2022/12/10 00:47:38;;;;;;;;;;;;;;;18.64;41.09;100388.75;5153773;27;19927;-46
2022/12/10 00:50:04;;;;;;;;;;;;;;;18.63;41.04;100384.38;5151039;27;19923;-44
2022/12/10 00:52:30;;;;;;;;;;;;;;;18.64;41.11;100390.69;5173068;27;19927;-44
2022/12/10 00:54:55;;;;;;;;;;;;;;;18.64;41.00;100396.22;5160000;27;19923;-43
2022/12/10 00:57:21;;;;;;;;;;;;;;;18.63;40.92;100397.34;5166200;27;19945;-44
2022/12/10 00:59:46;;;;;;;;;;;;;;;18.63;41.11;100398.16;5149716;27;19924;-44
2022/12/10 01:02:12;;;;;;;;;;;;;;;18.63;40.84;100402.84;5146572;27;20046;-45
2022/12/10 01:04:38;;;;;;;;;;;;;;;18.63;41.02;100397.34;5161313;27;19933;-44
2022/12/10 01:07:03;;;;;;;;;;;;;;;18.63;41.18;100397.34;5175258;27;19923;-44
2022/12/10 01:09:36;;;;;;;;;;;;;;;18.63;41.09;100398.16;5175999;27;19927;-44
2022/12/10 01:12:02;;;;;;;;;;;;;;;18.63;40.85;100403.69;5157374;27;19930;-43
2022/12/10 01:14:29;;;;;;;;;;;;;;;18.63;40.98;100400.09;5150209;27;20391;-45
2022/12/10 01:16:56;;;;;;;;;;;;;;;18.62;41.03;100396.53;5135902;27;19945;-46
2022/12/10 01:19:21;;;;;;;;;;;;;;;18.62;41.09;100398.47;5140054;27;19970;-46
2022/12/10 01:21:50;;;;;;;;;;;;;;;18.63;40.87;100409.19;5168755;27;20565;-44
2022/12/10 01:24:16;;;;;;;;;;;;;;;18.63;41.01;100409.19;5168596;27;20410;-43
2022/12/10 01:26:41;;;;;;;;;;;;;;;18.63;41.13;100413.88;5176376;27;19966;-44
2022/12/10 01:29:07;;;;;;;;;;;;;;;18.62;41.06;100407.56;5163784;27;20341;-43
2022/12/10 01:31:34;;;;;;;;;;;;;;;18.62;41.06;100407.56;5162778;27;19927;-45
2022/12/10 01:34:00;;;;;;;;;;;;;;;18.62;41.03;100415.00;5123781;27;19922;-44
2022/12/10 01:36:27;;;;;;;;;;;;;;;18.63;41.17;100416.66;5151081;27;19953;-43
2022/12/10 01:38:52;;;;;;;;;;;;;;;18.62;41.08;100418.59;5158415;27;20521;-45
2022/12/10 01:41:19;;;;;;;;;;;;;;;18.62;41.02;100420.53;5168415;27;19923;-43
2022/12/10 01:43:54;;;;;;;;;;;;;;;18.62;40.91;100420.53;5145799;27;19961;-44
2022/12/10 01:46:19;;;;;;;;;;;;;;;18.62;41.11;100428.78;5165484;27;20386;-43
2022/12/10 01:48:45;;;;;;;;;;;;;;;18.62;41.05;100423.28;5154501;27;19923;-43
2022/12/10 01:51:11;;;;;;;;;;;;;;;18.62;41.13;100434.31;5174246;27;19982;-43
2022/12/10 01:53:37;;;;;;;;;;;;;;;18.62;40.87;100437.06;5168232;27;19959;-43
2022/12/10 01:56:03;;;;;;;;;;;;;;;18.63;41.03;100435.94;5148397;27;19930;-45
2022/12/10 01:58:28;;;;;;;;;;;;;;;18.61;40.88;100439.00;5164633;27;20363;-44
2022/12/10 02:01:14;;;;;;;;;;;;;;;18.62;40.95;100434.31;5155166;27;19923;-43
2022/12/10 02:03:44;;;;;;;;;;;;;;;18.62;40.95;100440.66;5133712;27;20002;-44
2022/12/10 02:09:08;;;;;;;;;;;;;;;18.60;41.03;100442.84;5191312;27;19925;-43
2022/12/10 02:11:37;;;;;;;;;;;;;;;18.61;40.97;100441.75;5172611;27;20015;-44
2022/12/10 02:14:05;;;;;;;;;;;;;;;18.60;41.22;100439.28;5172178;27;19922;-43
2022/12/10 02:16:33;;;;;;;;;;;;;;;18.60;40.88;100445.59;5150419;27;20034;-44
2022/12/10 02:19:03;;;;;;;;;;;;;;;18.61;40.82;100440.91;5157988;27;20343;-43
2022/12/10 02:21:30;;;;;;;;;;;;;;;18.61;41.17;100435.41;5179172;27;19931;-43
2022/12/10 02:23:57;;;;;;;;;;;;;;;18.61;41.10;100446.44;5174909;27;20097;-45
2022/12/10 02:26:30;;;;;;;;;;;;;;;18.60;41.14;100439.28;5154151;27;20041;-44
2022/12/10 02:29:15;;;;;;;;;;;;;;;18.61;40.87;100450.03;5165421;27;19934;-45
2022/12/10 02:31:46;;;;;;;;;;;;;;;18.60;40.96;100445.59;5134676;27;20014;-43
2022/12/10 02:34:12;;;;;;;;;;;;;;;18.61;41.01;100438.16;5134241;27;20006;-43
2022/12/10 02:36:38;;;;;;;;;;;;;;;18.61;41.11;100440.91;5172991;27;19930;-45
2022/12/10 02:39:03;;;;;;;;;;;;;;;18.60;40.88;100431.81;5139084;27;20290;-44
2022/12/10 02:41:31;;;;;;;;;;;;;;;18.60;40.86;100428.25;5138009;27;20221;-43
2022/12/10 02:43:56;;;;;;;;;;;;;;;18.60;40.93;100434.56;5169449;27;19958;-45
2022/12/10 02:46:22;;;;;;;;;;;;;;;18.60;40.86;100431.81;5168525;27;19930;-44
2022/12/10 02:48:48;;;;;;;;;;;;;;;18.60;41.17;100434.56;5171358;27;20385;-44
2022/12/10 02:51:13;;;;;;;;;;;;;;;18.60;41.12;100451.13;5173129;27;19924;-47
2022/12/10 02:53:43;;;;;;;;;;;;;;;18.59;41.15;100443.97;5152866;27;19927;-43
2022/12/10 02:56:26;;;;;;;;;;;;;;;18.58;40.83;100436.81;5166353;27;20423;-43
2022/12/10 02:59:10;;;;;;;;;;;;;;;18.60;40.95;100442.03;5181380;27;19945;-44
2022/12/10 03:01:39;;;;;;;;;;;;;;;18.58;40.86;100447.03;5160712;27;19923;-44
2022/12/10 03:04:06;;;;;;;;;;;;;;;18.59;41.03;100456.94;5152832;27;19922;-45
2022/12/10 03:06:36;;;;;;;;;;;;;;;18.58;41.01;100458.88;5150224;27;19966;-47
2022/12/10 03:09:05;;;;;;;;;;;;;;;18.58;40.86;100460.81;5149460;27;19973;-44
2022/12/10 03:11:31;;;;;;;;;;;;;;;18.58;41.06;100458.88;5110957;27;19967;-43
2022/12/10 03:16:40;;;;;;;;;;;;;;;18.58;41.24;100450.59;5189637;27;19925;-43
2022/12/10 03:19:07;;;;;;;;;;;;;;;18.60;40.87;100458.56;5171015;27;20338;-43
2022/12/10 03:21:33;;;;;;;;;;;;;;;18.58;40.94;100464.41;5151843;27;19938;-44
2022/12/10 03:23:59;;;;;;;;;;;;;;;18.58;40.82;100463.56;5181768;27;19927;-44
2022/12/10 03:26:25;;;;;;;;;;;;;;;18.58;41.08;100469.09;5169344;27;19923;-45
2022/12/10 03:28:51;;;;;;;;;;;;;;;18.58;41.06;100469.91;5169529;27;19929;-43
2022/12/10 03:31:17;;;;;;;;;;;;;;;18.57;41.15;100471.03;5159271;27;19972;-43
2022/12/10 03:33:42;;;;;;;;;;;;;;;18.58;40.94;100475.44;5161334;27;20335;-44
2022/12/10 03:36:08;;;;;;;;;;;;;;;18.58;40.97;100475.44;5169255;27;20389;-44
2022/12/10 03:38:33;;;;;;;;;;;;;;;18.57;41.12;100479.31;5151033;27;20377;-44
2022/12/10 03:40:59;;;;;;;;;;;;;;;18.56;41.16;100472.13;5155085;27;19929;-43
2022/12/10 03:43:25;;;;;;;;;;;;;;;18.58;40.95;100474.59;5180856;27;19923;-43
2022/12/10 03:45:50;;;;;;;;;;;;;;;18.57;40.99;100479.31;5173853;27;19923;-44
2022/12/10 03:48:16;;;;;;;;;;;;;;;18.58;41.17;100474.59;5169816;27;19972;-44
2022/12/10 03:50:41;;;;;;;;;;;;;;;18.57;40.89;100473.78;5173435;27;19923;-45
2022/12/10 03:53:07;;;;;;;;;;;;;;;18.56;40.86;100474.88;5169336;27;19923;-44
2022/12/10 03:55:32;;;;;;;;;;;;;;;18.58;41.08;100474.59;5170716;27;19923;-43
2022/12/10 03:57:58;;;;;;;;;;;;;;;18.56;40.91;100477.63;5168843;27;20041;-44
2022/12/10 04:00:24;;;;;;;;;;;;;;;18.56;40.90;100478.44;5169296;27;19978;-44
2022/12/10 04:02:49;;;;;;;;;;;;;;;18.57;41.16;100482.06;5167580;27;20385;-45
2022/12/10 04:05:15;;;;;;;;;;;;;;;18.55;40.84;100474.06;5147862;27;19927;-44
2022/12/10 04:07:41;;;;;;;;;;;;;;;18.56;41.11;100475.69;5148325;27;19930;-44
2022/12/10 04:10:06;;;;;;;;;;;;;;;18.55;41.11;100471.28;5148081;27;19930;-43
2022/12/10 04:12:32;;;;;;;;;;;;;;;18.55;40.95;100474.06;5159389;27;19938;-44
2022/12/10 04:17:43;;;;;;;;;;;;;;;18.55;41.15;100471.28;5148327;27;20409;-44
2022/12/10 04:26:51;;;;;;;;;;;;;;;18.55;41.14;100473.22;5139353;27;19923;-43
2022/12/10 04:28:26;;;;;;;;;;;;;;;18.56;41.22;100477.63;5122314;27;19973;-44
2022/12/10 04:30:51;;;;;;;;;;;;;;;18.54;40.90;100475.16;5137139;27;19938;-44
2022/12/10 04:33:17;;;;;;;;;;;;;;;18.55;41.20;100482.31;5135170;27;19931;-43
2022/12/10 04:35:42;;;;;;;;;;;;;;;18.55;41.09;100476.00;5133215;27;19927;-44
2022/12/10 04:38:08;;;;;;;;;;;;;;;18.55;41.15;100476.00;5133998;28;19969;-45
2022/12/10 04:40:33;;;;;;;;;;;;;;;18.53;41.04;100479.03;5135367;27;19931;-43
2022/12/10 04:42:59;;;;;;;;;;;;;;;18.55;41.06;100481.50;5141835;27;20294;-43
2022/12/10 04:45:24;;;;;;;;;;;;;;;18.54;40.98;100472.41;5141412;27;20142;-43
2022/12/10 04:47:50;;;;;;;;;;;;;;;18.54;41.04;100477.94;5131184;28;19930;-44
2022/12/10 04:50:16;;;;;;;;;;;;;;;18.55;40.92;100478.75;5133523;28;19946;-43
2022/12/10 04:52:41;;;;;;;;;;;;;;;18.54;41.14;100482.63;5133677;27;19930;-45
2022/12/10 04:55:07;;;;;;;;;;;;;;;18.55;41.06;100484.25;5142319;27;20263;-43
2022/12/10 04:57:33;;;;;;;;;;;;;;;18.55;40.96;100484.25;5131610;27;19927;-44
2022/12/10 04:59:58;;;;;;;;;;;;;;;18.53;40.95;100484.56;5133395;27;19981;-44
2022/12/10 05:02:24;;;;;;;;;;;;;;;18.53;41.21;100487.31;5131944;27;19923;-43
2022/12/10 05:04:49;;;;;;;;;;;;;;;18.54;41.21;100483.44;5128412;27;19924;-44
2022/12/10 05:07:15;;;;;;;;;;;;;;;18.54;41.13;100482.63;5125273;28;19923;-43
2022/12/10 05:09:40;;;;;;;;;;;;;;;18.53;40.99;100479.03;5115121;28;19992;-43
2022/12/10 05:12:06;;;;;;;;;;;;;;;18.54;41.11;100488.13;5133032;27;19924;-43
2022/12/10 05:14:32;;;;;;;;;;;;;;;18.54;40.90;100488.13;5146084;27;19924;-43
2022/12/10 05:16:57;;;;;;;;;;;;;;;18.53;41.18;100481.81;5136382;27;20021;-44
2022/12/10 05:19:25;;;;;;;;;;;;;;;18.53;40.97;100481.81;5114781;28;20325;-43
2022/12/10 05:24:37;;;;;;;;;;;;;;;18.53;41.10;100472.72;5107489;28;19924;-45
2022/12/10 05:27:02;;;;;;;;;;;;;;;18.53;41.04;100479.03;5133416;27;19968;-44
2022/12/10 05:29:28;;;;;;;;;;;;;;;18.54;41.11;100485.38;5137353;27;19941;-44
2022/12/10 05:31:54;;;;;;;;;;;;;;;18.52;41.14;100488.44;5114122;28;19923;-44
2022/12/10 05:34:19;;;;;;;;;;;;;;;18.53;41.22;100484.56;5132566;27;19924;-44
2022/12/10 05:36:45;;;;;;;;;;;;;;;18.53;41.21;100490.06;5139827;27;19930;-44
2022/12/10 05:39:10;;;;;;;;;;;;;;;18.53;41.10;100481.00;5150570;27;20249;-44
2022/12/10 05:41:36;;;;;;;;;;;;;;;18.52;41.00;100482.94;5132887;27;19923;-43
2022/12/10 05:44:02;;;;;;;;;;;;;;;18.52;40.93;100491.19;5113793;28;20383;-44
2022/12/10 05:46:29;;;;;;;;;;;;;;;18.51;41.11;100492.28;5113883;28;19927;-43
2022/12/10 05:48:54;;;;;;;;;;;;;;;18.52;41.26;100490.34;5133172;27;19983;-43
2022/12/10 05:51:21;;;;;;;;;;;;;;;18.51;41.06;100484.00;5141444;27;19923;-43
2022/12/10 05:53:46;;;;;;;;;;;;;;;18.52;40.88;100495.84;5118588;27;20079;-44
2022/12/10 05:56:13;;;;;;;;;;;;;;;18.52;41.33;100493.94;5113918;28;20333;-43
2022/12/10 05:58:39;;;;;;;;;;;;;;;18.51;40.80;100497.78;5135995;27;20031;-44
2022/12/10 06:01:06;;;;;;;;;;;;;;;18.52;40.89;100509.66;5116114;28;19931;-43
2022/12/10 06:03:32;;;;;;;;;;;;;;;18.53;41.00;100506.63;5140195;27;19930;-44
2022/12/10 06:05:57;;;;;;;;;;;;;;;18.51;41.18;100500.56;5131576;28;19954;-43
2022/12/10 06:08:23;;;;;;;;;;;;;;;18.52;41.15;100501.38;5132704;28;19939;-43
2022/12/10 06:10:48;;;;;;;;;;;;;;;18.51;40.97;100508.81;5138292;27;20317;-44
2022/12/10 06:13:14;;;;;;;;;;;;;;;18.51;40.85;100502.50;5135431;27;19938;-44
2022/12/10 06:15:40;;;;;;;;;;;;;;;18.52;41.14;100512.41;5146750;27;19927;-45
2022/12/10 06:18:06;;;;;;;;;;;;;;;18.52;40.89;100516.00;5115660;28;20159;-43
2022/12/10 06:20:31;;;;;;;;;;;;;;;18.51;41.13;100510.75;5123764;27;19923;-44
2022/12/10 06:22:57;;;;;;;;;;;;;;;18.50;41.24;100509.94;5134338;27;19931;-44
2022/12/10 06:25:23;;;;;;;;;;;;;;;18.51;41.11;100519.84;5131390;27;20023;-43
2022/12/10 06:27:48;;;;;;;;;;;;;;;18.51;40.99;100514.34;5139639;27;19923;-44
2022/12/10 06:30:14;;;;;;;;;;;;;;;18.51;41.25;100521.78;5132191;27;19949;-45
2022/12/10 06:32:39;;;;;;;;;;;;;;;18.50;41.11;100531.19;5131897;27;19928;-43
2022/12/10 06:35:05;;;;;;;;;;;;;;;18.51;41.07;100524.56;5133390;27;19924;-44
2022/12/10 06:37:30;;;;;;;;;;;;;;;18.50;41.20;100529.25;5132117;28;19928;-43
2022/12/10 06:39:56;;;;;;;;;;;;;;;18.51;41.16;100532.81;5132035;27;19932;-44
2022/12/10 06:42:22;;;;;;;;;;;;;;;18.51;41.02;100539.16;5135865;27;19976;-43
2022/12/10 06:44:47;;;;;;;;;;;;;;;18.51;40.77;100541.09;5133972;27;19976;-43
2022/12/10 06:47:13;;;;;;;;;;;;;;;18.51;40.96;100541.91;5127960;27;19935;-44
2022/12/10 06:49:39;;;;;;;;;;;;;;;18.50;41.17;100540.28;5131804;27;20278;-43
2022/12/10 06:52:04;;;;;;;;;;;;;;;18.51;40.89;100541.91;5132242;27;19931;-45
2022/12/10 06:54:30;;;;;;;;;;;;;;;18.50;41.26;100536.69;5131555;27;19935;-43
2022/12/10 06:56:56;;;;;;;;;;;;;;;18.50;41.07;100545.78;5131512;27;19923;-43
2022/12/10 06:59:21;;;;;;;;;;;;;;;18.49;41.09;100555.19;5113644;27;20295;-44
2022/12/10 07:01:47;;;;;;;;;;;;;;;18.51;40.95;100563.16;5148583;27;19923;-44
2022/12/10 07:04:12;;;;;;;;;;;;;;;18.50;41.11;100551.31;5144229;27;19958;-44
2022/12/10 07:06:38;;;;;;;;;;;;;;;18.50;41.20;100551.31;5112955;28;20391;-43
2022/12/10 07:09:03;;;;;;;;;;;;;;;18.50;40.88;100556.00;5131713;27;19927;-44
2022/12/10 07:11:30;;;;;;;;;;;;;;;18.50;41.20;100561.50;5113413;28;20283;-43
2022/12/10 07:13:56;;;;;;;;;;;;;;;18.49;40.96;100557.94;5130924;27;20391;-43
2022/12/10 07:16:23;;;;;;;;;;;;;;;18.49;41.01;100557.94;5135164;27;20367;-43
2022/12/10 07:18:49;;;;;;;;;;;;;;;18.50;41.16;100561.50;5131950;27;19954;-44
2022/12/10 07:21:19;;;;;;;;;;;;;;;18.50;41.09;100567.84;5148258;27;19923;-43
2022/12/10 07:23:45;;;;;;;;;;;;;;;18.48;40.97;100559.06;5145431;27;19934;-44
2022/12/10 07:26:10;;;;;;;;;;;;;;;18.49;41.02;100566.22;5131170;27;19972;-44
2022/12/10 07:28:36;;;;;;;;;;;;;;;18.50;40.95;100569.78;5133386;27;19931;-43
2022/12/10 07:31:14;;;;;;;;;;;;;;;18.49;41.17;100571.72;5135048;27;19928;-44
2022/12/10 07:33:40;;;;;;;;;;;;;;;18.49;40.99;100568.97;5131310;27;19931;-43
2022/12/10 07:36:06;;;;;;;;;;;;;;;18.50;41.01;100575.31;5131262;28;20005;-44
2022/12/10 07:38:32;;;;;;;;;;;;;;;18.48;40.93;100578.34;5113131;27;20355;-44
2022/12/10 07:40:57;;;;;;;;;;;;;;;18.49;40.98;100580.00;5136685;27;20403;-44
2022/12/10 07:43:23;;;;;;;;;;;;;;;18.49;41.15;100585.50;5131927;27;20403;-45
2022/12/10 07:45:48;;;;;;;;;;;;;;;18.49;40.94;100585.50;5145749;27;19924;-44
2022/12/10 07:48:15;;;;;;;;;;;;;;;18.47;41.22;100584.97;5131315;28;19923;-43
2022/12/10 07:50:40;;;;;;;;;;;;;;;18.49;40.91;100584.69;5131520;27;20849;-44
2022/12/10 07:56:34;;;;;;;;;;;;;;;18.48;41.22;100594.91;5137603;27;19996;-43
2022/12/10 07:59:00;;;;;;;;;;;;;;;18.50;40.92;100597.38;5132652;27;20037;-44
2022/12/10 08:01:25;;;;;;;;;;;;;;;18.49;40.88;100592.97;5135729;27;19923;-43
2022/12/10 08:03:51;;;;;;;;;;;;;;;18.47;41.05;100587.72;5136343;27;19927;-43
2022/12/10 08:06:18;;;;;;;;;;;;;;;18.48;41.21;100599.56;5126340;28;19962;-45
2022/12/10 08:08:44;;;;;;;;;;;;;;;18.48;41.12;100597.66;5116245;28;19971;-43
2022/12/10 08:11:10;;;;;;;;;;;;;;;18.47;41.04;100603.44;5133862;27;20021;-45
2022/12/10 08:13:36;;;;;;;;;;;;;;;18.47;41.17;100598.75;5114881;28;19951;-44
2022/12/10 08:16:02;;;;;;;;;;;;;;;18.48;40.89;100603.19;5134855;27;19930;-43
2022/12/10 08:18:28;;;;;;;;;;;;;;;18.47;40.91;100600.69;5133455;27;19946;-44
2022/12/10 08:20:54;;;;;;;;;;;;;;;18.48;40.79;100599.56;5124970;27;20383;-45
2022/12/10 08:23:19;;;;;;;;;;;;;;;18.47;41.20;100618.03;5147109;27;19930;-43
2022/12/10 08:25:45;;;;;;;;;;;;;;;18.47;41.14;100608.94;5138767;27;19934;-44
2022/12/10 08:28:10;;;;;;;;;;;;;;;18.48;41.02;100616.97;5134733;27;20162;-43
2022/12/10 08:30:36;;;;;;;;;;;;;;;18.47;41.18;100609.78;5144942;27;19923;-44
2022/12/10 08:33:01;;;;;;;;;;;;;;;18.46;40.92;100621.91;5133520;27;20244;-43
2022/12/10 08:35:27;;;;;;;;;;;;;;;18.47;41.03;100617.22;5129096;27;19923;-44
2022/12/10 08:37:52;;;;;;;;;;;;;;;18.47;41.18;100629.06;5134371;27;19924;-44
2022/12/10 08:40:18;;;;;;;;;;;;;;;18.47;41.09;100625.50;5145696;27;20380;-44
2022/12/10 08:42:43;;;;;;;;;;;;;;;18.47;40.89;100625.50;5133523;28;19938;-44
2022/12/10 08:45:09;;;;;;;;;;;;;;;18.46;41.03;100638.47;5133780;27;20097;-44
2022/12/10 08:47:35;;;;;;;;;;;;;;;18.46;41.24;100643.97;5132324;27;20393;-43
2022/12/10 08:50:00;;;;;;;;;;;;;;;18.46;41.02;100646.72;5133807;28;19923;-43
2022/12/10 08:52:28;;;;;;;;;;;;;;;18.45;41.02;100647.84;5133430;28;19969;-44
2022/12/10 08:54:54;;;;;;;;;;;;;;;18.47;40.92;100653.06;5131893;27;19965;-44
2022/12/10 08:57:20;;;;;;;;;;;;;;;18.47;40.91;100651.13;5133684;28;19923;-44
2022/12/10 08:59:45;;;;;;;;;;;;;;;18.47;41.44;100655.84;5133525;28;20367;-44
2022/12/10 09:02:11;;;;;;;;;;;;;;;18.46;41.24;100652.25;5133477;28;19927;-44
2022/12/10 09:04:36;;;;;;;;;;;;;;;18.48;41.20;100651.97;5132394;27;20359;-45
2022/12/10 09:07:03;;;;;;;;;;;;;;;18.45;41.29;100653.38;5133513;28;20497;-46
2022/12/10 09:09:28;;;;;;;;;;;;;;;18.46;41.21;100649.50;5114970;28;19958;-43
2022/12/10 09:11:54;;;;;;;;;;;;;;;18.46;41.24;100652.25;5133304;28;19927;-44
2022/12/10 09:14:19;;;;;;;;;;;;;;;18.47;41.20;100658.59;5132261;27;19931;-44
2022/12/10 09:16:45;;;;;;;;;;;;;;;18.47;40.87;100661.34;5132151;27;20275;-43
2022/12/10 09:19:11;;;;;;;;;;;;;;;18.47;41.09;100661.34;5139119;27;19930;-45
2022/12/10 09:21:43;;;;;;;;;;;;;;;18.45;41.13;100658.88;5132616;28;20279;-43
2022/12/10 09:24:09;;;;;;;;;;;;;;;18.46;41.18;100657.75;5136371;27;20381;-43
2022/12/10 09:26:34;;;;;;;;;;;;;;;18.45;41.14;100661.63;5146423;27;19923;-43
2022/12/10 09:29:00;;;;;;;;;;;;;;;18.46;41.13;100663.28;5134361;27;19959;-43
2022/12/10 09:31:26;;;;;;;;;;;;;;;18.46;41.06;100665.22;5132466;28;19923;-44
2022/12/10 09:33:52;;;;;;;;;;;;;;;18.45;40.96;100669.91;5112664;27;19931;-44
2022/12/10 09:36:17;;;;;;;;;;;;;;;18.46;41.16;100671.56;5114536;28;20264;-42
2022/12/10 09:38:43;;;;;;;;;;;;;;;18.46;41.06;100670.72;5133219;28;19924;-45
2022/12/10 09:43:49;;;;;;;;;;;;;;;18.45;41.17;100669.09;5171851;27;19926;-43
2022/12/10 09:46:23;;;;;;;;;;;;;;;18.45;40.98;100669.91;5151073;27;19981;-44
2022/12/10 09:49:08;;;;;;;;;;;;;;;18.45;41.03;100669.09;5169465;27;19923;-43
2022/12/10 09:51:34;;;;;;;;;;;;;;;18.45;41.16;100669.91;5151386;27;20138;-45
2022/12/10 09:54:00;;;;;;;;;;;;;;;18.44;41.05;100668.28;5148396;27;19969;-44
2022/12/10 09:56:29;;;;;;;;;;;;;;;18.44;41.23;100665.50;5168762;27;19923;-43
2022/12/10 09:58:54;;;;;;;;;;;;;;;18.45;40.95;100658.88;5169083;27;19965;-44
2022/12/10 10:01:20;;;;;;;;;;;;;;;18.44;41.16;100668.28;5150494;27;19923;-43
2022/12/10 10:03:46;;;;;;;;;;;;;;;18.46;40.95;100670.72;5165308;27;19985;-43
2022/12/10 10:06:14;;;;;;;;;;;;;;;18.46;40.96;100673.50;5152151;27;20038;-42
2022/12/10 10:08:41;;;;;;;;;;;;;;;18.45;41.17;100671.84;5168163;27;20290;-41
2022/12/10 10:11:10;;;;;;;;;;;;;;;18.44;41.25;100671.03;5167422;27;20381;-45
2022/12/10 10:13:36;;;;;;;;;;;;;;;18.45;41.16;100669.09;5166795;27;19962;-44
2022/12/10 10:16:22;;;;;;;;;;;;;;;18.44;41.06;100670.19;5134765;27;20488;-44
2022/12/10 10:18:51;;;;;;;;;;;;;;;18.45;41.16;100666.34;5151369;27;19923;-43
2022/12/10 10:21:20;;;;;;;;;;;;;;;18.45;41.30;100658.06;5168374;27;19954;-43
2022/12/10 10:23:45;;;;;;;;;;;;;;;18.45;41.16;100660.81;5165944;27;20010;-43
2022/12/10 10:26:11;;;;;;;;;;;;;;;18.45;41.31;100661.63;5134230;27;19927;-45
2022/12/10 10:28:37;;;;;;;;;;;;;;;18.45;41.16;100660.81;5168846;27;19971;-43
2022/12/10 10:31:07;;;;;;;;;;;;;;;18.45;40.97;100669.91;5147223;27;20398;-43
2022/12/10 10:33:33;;;;;;;;;;;;;;;18.44;41.11;100673.78;5126305;28;19924;-44
2022/12/10 10:35:59;;;;;;;;;;;;;;;18.43;41.04;100669.34;5146586;27;19931;-43
2022/12/10 10:38:28;;;;;;;;;;;;;;;18.44;41.03;100661.94;5148277;27;19924;-42
2022/12/10 10:40:54;;;;;;;;;;;;;;;18.44;41.15;100665.50;5157847;27;20404;-44
2022/12/10 10:45:54;;;;;;;;;;;;;;;18.44;41.07;100659.16;5184750;27;19926;-43
2022/12/10 10:48:21;;;;;;;;;;;;;;;18.44;41.22;100653.66;5173723;27;20007;-44
2022/12/10 10:50:48;;;;;;;;;;;;;;;18.45;41.24;100655.31;5153614;27;19970;-43
2022/12/10 10:53:25;;;;;;;;;;;;;;;18.45;41.15;100655.31;5148326;27;19963;-43
2022/12/10 10:55:52;;;;;;;;;;;;;;;18.43;40.95;100658.31;5149392;27;19954;-45
2022/12/10 10:58:19;;;;;;;;;;;;;;;18.44;41.06;100645.38;5190773;27;19965;-43
2022/12/10 11:01:05;;;;;;;;;;;;;;;18.43;41.12;100657.50;5154661;27;20023;-43
2022/12/10 11:03:30;;;;;;;;;;;;;;;18.44;41.08;100656.41;5134719;27;20414;-42
2022/12/10 11:05:56;;;;;;;;;;;;;;;18.43;41.03;100655.56;5111199;27;19931;-44
2022/12/10 11:08:23;;;;;;;;;;;;;;;18.43;41.26;100649.22;5169740;27;19923;-43
2022/12/10 11:10:51;;;;;;;;;;;;;;;18.43;41.20;100657.50;5161218;27;19923;-43
2022/12/10 11:13:19;;;;;;;;;;;;;;;18.43;41.18;100652.81;5112098;28;20297;-44
2022/12/10 11:15:45;;;;;;;;;;;;;;;18.44;41.16;100659.16;5133821;27;19971;-43
2022/12/10 11:18:29;;;;;;;;;;;;;;;18.42;41.29;100651.16;5147367;27;20275;-43
2022/12/10 11:20:56;;;;;;;;;;;;;;;18.43;41.03;100652.81;5137215;27;19974;-43
2022/12/10 11:23:21;;;;;;;;;;;;;;;18.43;41.13;100654.75;5130979;27;19966;-43
2022/12/10 11:25:50;;;;;;;;;;;;;;;18.43;41.23;100654.75;5146867;27;19927;-44
2022/12/10 11:28:24;;;;;;;;;;;;;;;18.43;41.01;100651.97;5143439;27;20407;-43
2022/12/10 11:30:54;;;;;;;;;;;;;;;18.43;41.22;100654.75;5155662;27;19965;-45
2022/12/10 11:33:28;;;;;;;;;;;;;;;18.43;41.26;100654.75;5131156;27;19924;-43
2022/12/10 11:36:13;;;;;;;;;;;;;;;18.42;41.08;100653.91;5166973;27;19962;-44
2022/12/10 11:41:34;;;;;;;;;;;;;;;18.42;40.91;100644.81;5189130;27;19925;-43
2022/12/10 11:44:10;;;;;;;;;;;;;;;18.43;41.04;100646.47;5167087;27;19962;-46
2022/12/10 11:46:40;;;;;;;;;;;;;;;18.42;41.01;100642.06;5169148;27;19982;-45
2022/12/10 11:49:26;;;;;;;;;;;;;;;18.42;41.25;100648.41;5169636;27;19981;-44
2022/12/10 11:52:11;;;;;;;;;;;;;;;18.43;40.99;100646.47;5153635;27;19969;-43
2022/12/10 11:54:43;;;;;;;;;;;;;;;18.42;41.32;100653.91;5151581;27;20383;-43
2022/12/10 11:57:13;;;;;;;;;;;;;;;18.42;41.02;100661.38;5168973;27;20013;-43
2022/12/10 11:59:57;;;;;;;;;;;;;;;18.42;41.05;100664.13;5169107;27;20374;-45
2022/12/10 12:02:51;;;;;;;;;;;;;;;18.42;41.22;100659.44;5155515;27;19924;-44
2022/12/10 12:05:36;;;;;;;;;;;;;;;18.42;41.32;100661.38;5126052;27;20421;-43
2022/12/10 12:08:07;;;;;;;;;;;;;;;18.42;41.23;100656.69;5146387;27;19970;-44
2022/12/10 12:10:41;;;;;;;;;;;;;;;18.42;41.08;100664.94;5148614;27;19979;-44
2022/12/10 12:13:21;;;;;;;;;;;;;;;18.42;41.03;100664.94;5147496;27;20298;-45
2022/12/10 12:15:48;;;;;;;;;;;;;;;18.41;41.08;100666.06;5139454;27;19963;-43
2022/12/10 12:18:16;;;;;;;;;;;;;;;18.41;41.28;100655.03;5144176;27;19972;-44
2022/12/10 12:20:52;;;;;;;;;;;;;;;18.42;41.21;100653.91;5126718;27;19924;-43
2022/12/10 12:23:23;;;;;;;;;;;;;;;18.42;41.09;100655.84;5129164;27;19970;-45
2022/12/10 12:25:51;;;;;;;;;;;;;;;18.41;41.04;100657.78;5127067;27;19959;-43
2022/12/10 12:28:21;;;;;;;;;;;;;;;18.41;41.18;100666.06;5129515;27;19955;-43
2022/12/10 12:30:47;;;;;;;;;;;;;;;18.41;41.09;100660.56;5129218;27;20010;-44
2022/12/10 12:33:33;;;;;;;;;;;;;;;18.42;41.17;100653.09;5131458;27;19963;-43
2022/12/10 12:35:59;;;;;;;;;;;;;;;18.41;41.25;100648.69;5130190;27;20319;-43
2022/12/10 12:41:16;;;;;;;;;;;;;;;18.41;41.18;100652.28;5189636;27;20286;-43
2022/12/10 12:43:44;;;;;;;;;;;;;;;18.40;41.33;100661.66;5160610;27;19989;-43
2022/12/10 12:46:12;;;;;;;;;;;;;;;18.41;41.10;100660.56;5170674;27;20033;-43
2022/12/10 12:48:41;;;;;;;;;;;;;;;18.42;41.21;100658.63;5169872;27;20473;-45
2022/12/10 12:51:09;;;;;;;;;;;;;;;18.41;41.00;100663.31;5151123;27;19973;-43
2022/12/10 12:53:35;;;;;;;;;;;;;;;18.41;41.32;100663.31;5168392;27;19960;-44
2022/12/10 12:58:41;;;;;;;;;;;;;;;18.41;41.06;100668.00;5190676;27;19925;-44
2022/12/10 13:01:12;;;;;;;;;;;;;;;18.41;40.96;100668.00;5171627;27;19946;-44
2022/12/10 13:03:39;;;;;;;;;;;;;;;18.41;41.14;100665.25;5172207;27;19966;-44
2022/12/10 13:06:24;;;;;;;;;;;;;;;18.41;41.09;100659.72;5154260;27;20018;-44
2022/12/10 13:08:58;;;;;;;;;;;;;;;18.41;41.18;100663.31;5154253;27;19965;-44
2022/12/10 13:11:32;;;;;;;;;;;;;;;18.41;41.06;100663.31;5169817;27;20365;-43